Time;durP1;ratioP1;P1;durP2;ratioP2;P2;SDS_P1;SDS_P2;PMS_P1;PMS_P2;Temp;Humidity;BMP_temperature;BMP_pressure;BME280_temperature;BME280_humidity;BME280_pressure;Samples;Min_cycle;Max_cycle;Signal;HPM_P1;HPM_P2
2022/01/03 00:00:14;;;;;;;6.85;2.90;;;;;;;6.26;100.00;97043.47;4957092;28;20632;-65
2022/01/03 00:02:41;;;;;;;6.70;2.83;;;;;;;6.19;100.00;97041.28;4961726;28;20050;-65
2022/01/03 00:05:07;;;;;;;7.43;3.03;;;;;;;6.11;100.00;97047.59;4939795;28;20134;-64
2022/01/03 00:07:38;;;;;;;6.70;2.90;;;;;;;6.03;100.00;97048.41;4960939;28;20079;-64
2022/01/03 00:10:05;;;;;;;5.50;2.83;;;;;;;5.94;100.00;97041.09;4959257;28;20080;-63
2022/01/03 00:12:31;;;;;;;5.30;2.45;;;;;;;6.11;100.00;97036.69;4962627;28;20508;-63
2022/01/03 00:14:56;;;;;;;13.63;3.22;;;;;;;6.35;100.00;97046.94;4961356;28;20049;-64
2022/01/03 00:17:22;;;;;;;8.70;2.80;;;;;;;6.23;100.00;97049.56;4955743;28;20046;-64
2022/01/03 00:19:48;;;;;;;9.77;3.65;;;;;;;6.19;100.00;97057.59;4944650;28;20045;-65
2022/01/03 00:22:16;;;;;;;5.00;2.30;;;;;;;6.31;100.00;97056.91;4953927;28;20039;-64
2022/01/03 00:24:47;;;;;;;5.78;2.55;;;;;;;6.28;100.00;97052.94;4960455;28;20129;-64
2022/01/03 00:27:16;;;;;;;9.70;2.65;;;;;;;6.11;100.00;97051.09;4955788;28;20500;-63
2022/01/03 00:29:44;;;;;;;4.20;2.38;;;;;;;5.99;100.00;97051.00;4961495;28;20043;-66
2022/01/03 00:32:11;;;;;;;5.00;2.60;;;;;;;6.07;100.00;97046.66;4956498;28;20079;-64
2022/01/03 00:34:38;;;;;;;8.80;2.60;;;;;;;6.25;100.00;97055.50;4960158;28;20051;-65
2022/01/03 00:37:06;;;;;;;5.82;2.97;;;;;;;6.08;100.00;97045.50;4957512;28;20047;-64
2022/01/03 00:39:32;;;;;;;6.45;2.50;;;;;;;5.93;100.00;97038.69;4960251;28;20595;-65
2022/01/03 00:41:58;;;;;;;7.60;2.72;;;;;;;5.81;100.00;97044.81;4961570;28;20134;-65
2022/01/03 00:44:25;;;;;;;4.38;2.35;;;;;;;5.95;100.00;97039.16;4956321;28;20712;-65
2022/01/03 00:46:54;;;;;;;4.65;2.20;;;;;;;6.12;100.00;97046.44;4961271;28;20050;-66
2022/01/03 00:49:19;;;;;;;6.90;2.43;;;;;;;6.09;100.00;97041.69;4957309;28;20050;-65
2022/01/03 00:51:45;;;;;;;5.03;2.58;;;;;;;6.19;100.00;97038.56;4961113;28;20035;-66
2022/01/03 00:54:11;;;;;;;5.07;2.45;;;;;;;6.17;100.00;97032.66;4956500;28;20042;-66
2022/01/03 00:56:43;;;;;;;4.72;2.50;;;;;;;6.26;100.00;97035.31;4960438;28;20387;-65
2022/01/03 00:59:46;;;;;;;7.03;2.75;;;;;;;6.51;100.00;97039.00;4955032;28;20125;-65
2022/01/03 01:02:14;;;;;;;7.53;2.75;;;;;;;6.45;100.00;97038.41;4938236;28;20043;-63
2022/01/03 01:04:44;;;;;;;7.25;2.47;;;;;;;6.43;100.00;97053.47;4944014;28;20042;-64
2022/01/03 01:07:10;;;;;;;;;;;;;;;6.49;100.00;97049.41;4953397;28;20090;-64
2022/01/03 01:09:37;;;;;;;5.65;2.05;;;;;;;6.36;100.00;97045.81;4961063;28;20690;-66
2022/01/03 01:12:05;;;;;;;5.53;2.55;;;;;;;6.21;100.00;97044.50;4968566;28;20047;-62
2022/01/03 01:14:31;;;;;;;6.10;2.50;;;;;;;6.21;100.00;97040.94;4971634;28;20089;-65
2022/01/03 01:16:57;;;;;;;6.85;2.40;;;;;;;6.47;100.00;97057.13;4962211;28;20086;-65
2022/01/03 01:19:24;;;;;;;8.50;2.20;;;;;;;6.58;100.00;97058.31;4954419;28;20061;-63
2022/01/03 01:21:51;;;;;;;10.02;2.35;;;;;;;6.60;100.00;97060.72;4957010;28;20086;-65
2022/01/03 01:24:20;;;;;;;5.93;2.33;;;;;;;6.63;100.00;97062.78;4957007;28;20050;-64
2022/01/03 01:29:29;;;;;;;5.72;2.33;;;;;;;6.71;100.00;97051.00;4961502;28;20403;-66
2022/01/03 01:32:01;;;;;;;6.70;2.50;;;;;;;6.70;100.00;97054.88;4956810;28;20039;-65
2022/01/03 01:34:28;;;;;;;6.20;2.33;;;;;;;6.82;100.00;97056.84;4954141;28;20058;-65
2022/01/03 01:36:57;;;;;;;4.60;2.45;;;;;;;6.90;100.00;97045.09;4965556;28;20132;-65
2022/01/03 01:39:24;;;;;;;4.97;2.03;;;;;;;6.90;100.00;97036.91;4970716;28;21100;-66
2022/01/03 01:41:55;;;;;;;5.10;2.15;;;;;;;7.04;100.00;97031.16;4967584;28;20108;-65
2022/01/03 01:44:22;;;;;;;6.20;1.90;;;;;;;7.10;100.00;97024.41;4959088;28;20047;-65
2022/01/03 01:46:53;;;;;;;4.55;2.03;;;;;;;7.12;100.00;97033.03;4958055;28;20035;-66
2022/01/03 01:49:21;;;;;;;4.25;2.00;;;;;;;7.06;100.00;97042.56;4960515;28;20088;-65
2022/01/03 01:51:55;;;;;;;8.70;2.30;;;;;;;7.05;100.00;97036.28;4964806;28;20035;-65
2022/01/03 01:54:29;;;;;;;9.85;2.15;;;;;;;7.18;100.00;97039.06;4958866;28;20140;-65
2022/01/03 01:57:06;;;;;;;6.38;2.53;;;;;;;7.20;100.00;97020.44;4963497;28;20046;-66
2022/01/03 01:59:54;;;;;;;5.75;1.75;;;;;;;7.07;100.00;97016.88;4962498;28;20432;-66
2022/01/03 02:02:30;;;;;;;5.18;2.00;;;;;;;7.08;100.00;97016.56;4956892;28;20043;-66
2022/01/03 02:05:34;;;;;;;4.22;1.83;;;;;;;7.31;100.00;97016.19;4961420;28;20835;-65
2022/01/03 02:08:26;;;;;;;3.97;1.80;;;;;;;7.56;100.00;97013.47;4951246;28;20134;-65
2022/01/03 02:11:05;;;;;;;3.63;1.58;;;;;;;7.68;100.00;97018.16;4963692;28;20531;-65
2022/01/03 02:13:30;;;;;;;5.03;2.85;;;;;;;7.65;100.00;97008.69;4972643;28;20053;-63
2022/01/03 02:16:03;;;;;;;3.88;1.88;;;;;;;7.71;100.00;97006.56;4976422;28;20153;-65
2022/01/03 02:18:30;;;;;;;10.00;2.92;;;;;;;7.70;100.00;96996.78;4964113;28;20116;-65
2022/01/03 02:20:56;;;;;;;5.05;2.20;;;;;;;7.63;100.00;97006.34;4960633;28;20483;-65
2022/01/03 02:23:21;;;;;;;6.50;2.28;;;;;;;7.53;100.00;97023.13;4960073;28;20069;-65
2022/01/03 02:25:47;;;;;;;5.07;1.90;;;;;;;7.49;100.00;97032.31;4962759;28;20114;-65
2022/01/03 02:28:13;;;;;;;3.67;2.25;;;;;;;7.51;100.00;97035.50;4958462;28;20451;-64
2022/01/03 02:30:39;;;;;;;3.58;1.83;;;;;;;7.63;100.00;97033.59;4964068;28;20130;-65
2022/01/03 02:33:07;;;;;;;6.55;1.92;;;;;;;7.73;100.00;97018.72;4961762;28;20051;-64
2022/01/03 02:35:39;;;;;;;7.95;1.95;;;;;;;7.67;100.00;97022.81;4964753;28;20050;-68
2022/01/03 02:38:06;;;;;;;4.22;2.10;;;;;;;7.72;100.00;97029.97;4957971;28;20458;-63
2022/01/03 02:40:32;;;;;;;5.82;1.95;;;;;;;7.74;100.00;97028.50;4965024;28;20042;-65
2022/01/03 02:42:57;;;;;;;2.97;1.80;;;;;;;7.69;100.00;97008.81;4965805;28;20411;-65
2022/01/03 02:45:25;;;;;;;6.70;1.50;;;;;;;7.74;100.00;97008.59;4973469;28;20565;-64
2022/01/03 02:47:53;;;;;;;9.10;1.60;;;;;;;7.79;100.00;97003.72;4971285;28;20039;-65
2022/01/03 02:50:21;;;;;;;8.95;3.90;;;;;;;7.72;100.00;97003.47;4957901;28;20043;-66
2022/01/03 02:52:46;;;;;;;6.70;1.80;;;;;;;7.71;100.00;97006.56;4962913;28;20054;-66
2022/01/03 02:55:13;;;;;;;8.45;2.30;;;;;;;7.75;100.00;97007.47;4957899;28;20050;-65
2022/01/03 02:57:42;;;;;;;5.35;1.60;;;;;;;7.77;100.00;97007.94;4964042;28;20046;-66
2022/01/03 03:00:11;;;;;;;4.38;1.40;;;;;;;7.97;99.73;97012.47;4957651;28;20073;-65
2022/01/03 03:02:36;;;;;;;9.30;1.52;;;;;;;8.02;99.33;97025.88;4960687;28;20143;-65
2022/01/03 03:05:05;;;;;;;9.00;2.03;;;;;;;8.09;98.24;97030.75;4961702;28;20473;-64
2022/01/03 03:07:32;;;;;;;7.22;1.58;;;;;;;8.34;96.73;97006.97;4965416;28;20045;-67
2022/01/03 03:09:58;;;;;;;4.95;1.38;;;;;;;8.46;95.74;97000.69;4972243;28;20073;-68
2022/01/03 03:12:25;;;;;;;9.20;1.30;;;;;;;8.42;95.75;96997.09;4967094;28;20051;-67
2022/01/03 03:14:50;;;;;;;5.38;1.25;;;;;;;8.54;95.64;97002.50;4964845;28;20104;-66
2022/01/03 03:17:19;;;;;;;4.30;0.98;;;;;;;8.54;96.10;97016.16;4957387;28;20047;-67
2022/01/03 03:20:03;;;;;;;8.73;1.63;;;;;;;8.66;94.71;97017.25;4961191;28;20043;-66
2022/01/03 03:22:30;;;;;;;10.20;1.45;;;;;;;8.64;95.12;97005.91;4956297;28;20078;-67
2022/01/03 03:25:09;;;;;;;3.85;1.20;;;;;;;8.62;95.29;97011.69;4963971;28;20046;-67
2022/01/03 03:27:43;;;;;;;5.03;1.17;;;;;;;8.66;94.94;97007.16;4973482;28;20373;-66
2022/01/03 03:30:11;;;;;;;6.70;1.38;;;;;;;8.52;95.88;97004.00;4956560;28;20527;-66
2022/01/03 03:32:36;;;;;;;5.82;1.00;;;;;;;8.44;96.34;96997.53;4962540;28;20676;-68
2022/01/03 03:35:02;;;;;;;3.65;1.15;;;;;;;8.54;95.58;97001.72;4963390;28;20053;-66
2022/01/03 03:37:28;;;;;;;5.47;1.17;;;;;;;8.57;95.75;97010.03;4958054;28;20042;-66
2022/01/03 03:39:53;;;;;;;7.55;1.20;;;;;;;8.67;94.47;97006.00;4961043;28;20126;-66
2022/01/03 03:42:19;;;;;;;4.32;1.30;;;;;;;8.63;95.21;97007.06;4953522;28;20404;-65
2022/01/03 03:44:45;;;;;;;6.10;1.02;;;;;;;8.77;93.78;97021.91;4959841;28;20706;-66
2022/01/03 03:47:11;;;;;;;6.80;1.10;;;;;;;8.84;93.15;97017.78;4955286;28;20051;-65
2022/01/03 03:49:37;;;;;;;3.40;1.13;;;;;;;8.90;92.72;97014.44;4962522;28;20074;-67
2022/01/03 03:52:04;;;;;;;5.93;0.88;;;;;;;8.97;92.33;97016.59;4960176;28;20121;-63
2022/01/03 03:54:33;;;;;;;3.50;1.00;;;;;;;8.98;92.20;97010.78;4973233;28;20047;-66
2022/01/03 03:56:59;;;;;;;3.58;1.00;;;;;;;8.97;92.12;97025.56;4961466;28;20085;-66
2022/01/03 03:59:25;;;;;;;3.78;1.10;;;;;;;8.97;92.20;97009.19;4955836;28;20043;-67
2022/01/03 04:01:51;;;;;;;6.05;1.15;;;;;;;8.93;92.70;96999.28;4960041;28;20043;-66
2022/01/03 04:04:17;;;;;;;8.63;1.77;;;;;;;9.11;90.77;97011.53;4957087;28;20042;-66
2022/01/03 04:06:43;;;;;;;5.03;1.00;;;;;;;9.06;91.21;96994.59;4955799;28;20098;-65
2022/01/03 04:09:09;;;;;;;6.32;1.00;;;;;;;9.12;90.95;97007.63;4956604;28;20039;-65
2022/01/03 04:11:34;;;;;;;6.18;1.20;;;;;;;9.13;90.70;97006.50;4959525;28;20145;-66
2022/01/03 04:14:00;;;;;;;9.90;1.30;;;;;;;9.08;91.30;97006.75;4960964;28;20131;-66
2022/01/03 04:16:25;;;;;;;4.80;1.17;;;;;;;9.11;90.32;97010.69;4961204;28;20051;-65
2022/01/03 04:18:51;;;;;;;9.32;1.05;;;;;;;9.09;90.43;97013.81;4969181;28;20038;-65
2022/01/03 04:21:16;;;;;;;7.03;1.33;;;;;;;9.09;90.38;97002.88;4964309;28;20137;-65
2022/01/03 04:23:42;;;;;;;4.60;1.00;;;;;;;8.96;91.96;97004.84;4962414;28;20047;-65
2022/01/03 04:26:07;;;;;;;6.85;1.05;;;;;;;8.82;93.19;97017.31;4953977;28;20101;-63
2022/01/03 04:28:33;;;;;;;4.32;1.02;;;;;;;8.81;93.07;97016.53;4958800;28;20046;-65
2022/01/03 04:30:58;;;;;;;6.28;1.30;;;;;;;8.76;93.12;97012.09;4962819;28;20051;-66
2022/01/03 04:33:24;;;;;;;7.43;1.13;;;;;;;8.71;93.64;97011.56;4957983;28;20039;-69
2022/01/03 04:35:49;;;;;;;5.53;1.45;;;;;;;8.61;93.96;97015.59;4961419;28;20062;-65
2022/01/03 04:38:15;;;;;;;5.30;1.17;;;;;;;8.59;94.43;97012.41;4957349;28;20194;-66
2022/01/03 04:40:40;;;;;;;6.90;1.30;;;;;;;8.65;93.39;97016.47;4958267;28;20130;-66
2022/01/03 04:43:06;;;;;;;4.60;1.10;;;;;;;8.60;93.48;97009.31;4953307;28;20053;-65
2022/01/03 04:45:31;;;;;;;7.20;1.33;;;;;;;8.53;94.35;97009.09;4957431;28;20058;-66
2022/01/03 04:47:57;;;;;;;5.30;1.25;;;;;;;8.58;94.40;97013.53;4960292;28;20046;-66
2022/01/03 04:50:22;;;;;;;3.88;1.13;;;;;;;8.54;94.06;97002.50;4954732;28;20774;-66
2022/01/03 04:52:48;;;;;;;7.30;1.40;;;;;;;8.53;94.13;96994.66;4961940;28;20043;-64
2022/01/03 04:55:13;;;;;;;4.10;1.17;;;;;;;8.53;94.01;97000.13;4953683;28;20043;-66
2022/01/03 04:57:39;;;;;;;4.72;1.70;;;;;;;8.57;93.58;97001.84;4956602;28;20130;-65
2022/01/03 05:00:08;;;;;;;4.63;1.40;;;;;;;8.56;93.33;97000.22;4948660;28;20046;-65
2022/01/03 05:02:36;;;;;;;7.65;1.40;;;;;;;8.53;93.80;97000.91;4962756;28;20051;-65
2022/01/03 05:05:03;;;;;;;9.65;1.30;;;;;;;8.56;93.52;96993.97;4960328;28;20404;-64
2022/01/03 05:07:28;;;;;;;9.45;2.13;;;;;;;8.55;93.53;97001.38;4943484;28;20095;-65
2022/01/03 05:09:54;;;;;;;5.28;1.13;;;;;;;8.55;93.39;97004.13;4959214;28;20504;-66
2022/01/03 05:12:19;;;;;;;5.38;1.45;;;;;;;8.54;93.61;97007.19;4956873;28;20126;-67
2022/01/03 05:14:45;;;;;;;6.55;1.40;;;;;;;8.51;93.94;97002.41;4964709;28;20114;-65
2022/01/03 05:17:10;;;;;;;5.55;1.20;;;;;;;8.58;92.78;97005.34;4960394;28;20134;-66
2022/01/03 05:19:36;;;;;;;5.80;1.23;;;;;;;8.53;93.44;97011.03;4964943;28;20524;-66
2022/01/03 05:22:03;;;;;;;4.03;1.30;;;;;;;8.54;93.18;97004.47;4962225;28;20054;-64
2022/01/03 05:24:29;;;;;;;4.55;1.10;;;;;;;8.53;93.02;97016.50;4962125;28;20055;-65
2022/01/03 05:26:56;;;;;;;5.68;1.17;;;;;;;8.46;93.85;97029.94;4962925;28;20093;-66
2022/01/03 05:29:22;;;;;;;4.35;1.25;;;;;;;8.54;92.86;97040.75;4957901;28;20066;-67
2022/01/03 05:31:47;;;;;;;13.40;1.98;;;;;;;8.50;93.55;97044.47;4971715;28;20047;-66
2022/01/03 05:34:13;;;;;;;7.60;1.10;;;;;;;8.46;93.80;97035.41;4977302;28;20039;-65
2022/01/03 05:36:39;;;;;;;11.57;1.95;;;;;;;8.40;93.60;97021.97;4972941;28;20105;-66
2022/01/03 05:39:05;;;;;;;5.78;1.17;;;;;;;8.42;93.73;97036.09;4959653;28;20043;-65
2022/01/03 05:41:32;;;;;;;5.65;1.20;;;;;;;8.51;93.48;97030.50;4964113;28;20049;-66
2022/01/03 05:43:58;;;;;;;5.88;1.02;;;;;;;8.42;93.92;97016.97;4965012;28;20110;-65
2022/01/03 05:46:25;;;;;;;9.55;1.52;;;;;;;8.50;93.16;97018.00;4959359;28;20097;-66
2022/01/03 05:48:50;;;;;;;7.22;1.30;;;;;;;8.33;94.15;97015.50;4962208;28;20097;-66
2022/01/03 05:51:16;;;;;;;6.55;1.30;;;;;;;8.38;93.87;96996.94;4958939;28;20039;-67
2022/01/03 05:53:41;;;;;;;4.78;1.20;;;;;;;8.46;93.03;96999.91;4962485;28;20654;-65
2022/01/03 05:56:07;;;;;;;6.53;1.40;;;;;;;8.42;93.08;96995.13;4959419;28;20137;-66
2022/01/03 05:58:32;;;;;;;5.07;1.13;;;;;;;8.43;93.51;97004.16;4960959;28;20503;-66
2022/01/03 06:01:00;;;;;;;3.55;1.27;;;;;;;8.33;94.00;97013.56;4962852;28;20042;-65
2022/01/03 06:03:27;;;;;;;8.43;1.30;;;;;;;8.46;92.71;97011.63;4958842;28;20085;-67
2022/01/03 06:08:24;;;;;;;9.10;1.50;;;;;;;8.46;93.06;97019.03;4957462;28;20043;-66
2022/01/03 06:10:50;;;;;;;8.88;1.58;;;;;;;8.44;93.41;97018.56;4961419;28;20408;-65
2022/01/03 06:13:16;;;;;;;7.15;1.10;;;;;;;8.34;93.90;97033.47;4958662;28;20085;-66
2022/01/03 06:15:42;;;;;;;2.65;1.30;;;;;;;8.29;94.32;97034.50;4979023;28;20045;-66
2022/01/03 06:18:11;;;;;;;4.53;1.30;;;;;;;8.21;95.39;97019.84;4963658;28;20057;-66
2022/01/03 06:20:42;;;;;;;6.38;1.45;;;;;;;8.24;95.14;97016.41;4976577;28;20097;-66
2022/01/03 06:23:09;;;;;;;2.85;1.08;;;;;;;8.32;94.37;97022.09;4962950;28;20051;-65
2022/01/03 06:25:36;;;;;;;9.10;1.67;;;;;;;8.23;95.11;97017.56;4962779;28;20047;-65
2022/01/03 06:28:06;;;;;;;3.60;1.38;;;;;;;8.15;95.70;97014.97;4962470;28;20050;-65
2022/01/03 06:30:33;;;;;;;7.68;2.55;;;;;;;8.17;96.04;97008.00;4962028;28;20085;-65
2022/01/03 06:32:58;;;;;;;4.85;1.38;;;;;;;8.02;97.00;97023.16;4963920;28;20104;-66
2022/01/03 06:35:24;;;;;;;5.70;1.20;;;;;;;8.11;95.91;97012.13;4957433;28;20600;-65
2022/01/03 06:37:49;;;;;;;7.30;1.40;;;;;;;8.06;96.26;97019.75;4962083;28;20042;-65
2022/01/03 06:40:14;;;;;;;3.92;1.58;;;;;;;8.04;96.79;97009.94;4958984;28;20043;-65
2022/01/03 06:42:40;;;;;;;4.25;1.30;;;;;;;8.01;96.51;97007.13;4963275;28;20500;-66
2022/01/03 06:45:06;;;;;;;7.97;1.75;;;;;;;7.95;97.00;97025.66;4958652;28;20043;-63
2022/01/03 06:47:31;;;;;;;7.68;1.60;;;;;;;7.81;98.39;97014.28;4961381;28;20051;-64
2022/01/03 06:49:57;;;;;;;6.05;1.20;;;;;;;7.75;98.90;97023.84;4962148;28;20408;-67
2022/01/03 06:52:23;;;;;;;6.47;1.30;;;;;;;7.82;98.25;97011.22;4957178;28;20507;-65
2022/01/03 06:54:48;;;;;;;4.55;1.33;;;;;;;7.91;97.63;97008.38;4972487;28;20055;-67
2022/01/03 06:57:13;;;;;;;7.28;1.60;;;;;;;7.94;97.31;97010.44;4961244;28;20038;-66
2022/01/03 06:59:39;;;;;;;6.93;1.25;;;;;;;7.85;97.87;97007.81;4967502;28;20523;-67
2022/01/03 07:02:05;;;;;;;3.63;1.48;;;;;;;7.82;97.94;97015.88;4959842;28;20054;-65
2022/01/03 07:04:31;;;;;;;5.75;1.77;;;;;;;7.73;98.33;97007.81;4965939;28;20047;-65
2022/01/03 07:06:56;;;;;;;11.68;4.20;;;;;;;7.69;99.89;97017.81;4963706;28;20477;-67
2022/01/03 07:09:22;;;;;;;14.85;4.10;;;;;;;7.69;98.91;97011.53;4957502;28;20524;-67
2022/01/03 07:11:47;;;;;;;10.15;3.80;;;;;;;7.67;99.82;97017.38;4958042;28;20043;-67
2022/01/03 07:19:34;;;;;;;7.00;2.90;;;;;;;7.82;97.94;97019.41;4944571;28;20051;-65
2022/01/03 07:22:02;;;;;;;6.97;1.52;;;;;;;7.76;98.84;97019.97;4952592;28;20061;-67
2022/01/03 07:24:30;;;;;;;5.55;1.67;;;;;;;8.08;96.16;97017.47;4958409;28;20046;-67
2022/01/03 07:26:55;;;;;;;7.43;1.80;;;;;;;8.06;95.99;97022.47;4957908;28;20527;-66
2022/01/03 07:29:21;;;;;;;6.05;1.50;;;;;;;8.02;96.35;97019.63;4963591;28;20089;-67
2022/01/03 07:31:46;;;;;;;6.00;1.60;;;;;;;8.03;96.71;97023.94;4962249;28;20043;-67
2022/01/03 07:34:12;;;;;;;7.53;1.40;;;;;;;8.20;95.24;97023.69;4957111;28;20055;-65
2022/01/03 07:36:37;;;;;;;7.38;1.60;;;;;;;8.29;94.05;97025.53;4962521;28;20064;-66
2022/01/03 07:39:04;;;;;;;8.07;1.55;;;;;;;8.33;93.51;97010.03;4958467;28;20043;-64
2022/01/03 07:41:31;;;;;;;8.38;1.30;;;;;;;8.37;93.08;97017.22;4946548;28;20042;-63
2022/01/03 07:43:56;;;;;;;8.18;1.65;;;;;;;8.49;91.84;97015.63;4962115;28;20097;-67
2022/01/03 07:46:22;;;;;;;8.85;1.83;;;;;;;8.61;90.52;97021.03;4960044;28;20957;-67
2022/01/03 07:48:47;;;;;;;7.60;1.23;;;;;;;8.68;89.61;97021.25;4960787;28;20050;-64
2022/01/03 07:51:13;;;;;;;7.07;1.52;;;;;;;8.71;90.00;97034.19;4954314;28;20505;-66
2022/01/03 07:53:38;;;;;;;5.22;1.27;;;;;;;8.80;88.74;97039.53;4960594;28;20043;-65
2022/01/03 07:56:05;;;;;;;5.25;1.60;;;;;;;8.80;89.57;97032.13;4958330;28;20043;-63
2022/01/03 07:58:31;;;;;;;5.97;1.70;;;;;;;8.84;89.04;97023.22;4958788;28;20058;-65
2022/01/03 08:00:56;;;;;;;6.18;1.63;;;;;;;8.91;88.29;97023.44;4958568;28;20038;-65
2022/01/03 08:03:22;;;;;;;6.28;1.67;;;;;;;8.90;88.36;97022.66;4953734;28;21360;-66
2022/01/03 08:05:48;;;;;;;2.55;1.15;;;;;;;8.86;88.59;97031.88;4960993;28;20507;-67
2022/01/03 08:08:14;;;;;;;7.97;2.50;;;;;;;8.80;89.39;97017.66;4951618;28;20042;-67
2022/01/03 08:10:41;;;;;;;5.60;1.40;;;;;;;8.87;88.51;97036.19;4958287;28;20090;-66
2022/01/03 08:13:07;;;;;;;8.20;1.92;;;;;;;8.88;88.94;97024.94;4952944;28;20049;-67
2022/01/03 08:15:32;;;;;;;4.00;1.38;;;;;;;8.91;88.87;97028.91;4961111;28;20042;-67
2022/01/03 08:17:58;;;;;;;6.53;1.10;;;;;;;8.99;87.88;97026.03;4957996;28;20050;-68
2022/01/03 08:20:25;;;;;;;5.28;1.40;;;;;;;8.98;88.22;97012.69;4961227;28;20568;-66
2022/01/03 08:22:51;;;;;;;16.92;2.65;;;;;;;8.92;88.33;97022.31;4965628;28;20097;-66
2022/01/03 08:25:17;;;;;;;9.90;1.90;;;;;;;8.90;88.76;97024.59;4955506;28;20065;-63
2022/01/03 08:27:43;;;;;;;5.47;1.85;;;;;;;8.90;90.13;97021.88;4956707;28;20683;-66
2022/01/03 08:30:08;;;;;;;4.85;1.40;;;;;;;8.89;88.66;97028.47;4956471;28;20059;-65
2022/01/03 08:32:34;;;;;;;6.63;1.30;;;;;;;8.89;88.57;97025.72;4961159;28;20395;-66
2022/01/03 08:34:59;;;;;;;7.85;1.40;;;;;;;8.87;88.69;97033.47;4960820;28;20042;-67
2022/01/03 08:37:24;;;;;;;7.60;1.40;;;;;;;8.70;90.31;97031.84;4953849;28;20089;-66
2022/01/03 08:39:50;;;;;;;4.53;1.65;;;;;;;8.56;92.22;97038.44;4960099;28;20039;-66
2022/01/03 08:42:18;;;;;;;4.15;1.13;;;;;;;8.48;92.39;97042.13;4954821;28;20046;-63
2022/01/03 08:44:43;;;;;;;4.57;1.55;;;;;;;8.45;91.85;97036.56;4961112;28;20047;-65
2022/01/03 08:47:09;;;;;;;6.00;1.35;;;;;;;8.45;92.80;97034.63;4955979;28;20050;-67
2022/01/03 08:49:34;;;;;;;8.45;1.83;;;;;;;8.54;91.88;97031.75;4961543;28;20042;-66
2022/01/03 08:52:00;;;;;;;5.57;1.90;;;;;;;8.52;92.60;97025.84;4958891;28;20129;-67
2022/01/03 08:54:25;;;;;;;6.82;2.28;;;;;;;8.58;91.21;97022.50;4969229;28;20051;-67
2022/01/03 08:56:51;;;;;;;8.27;1.98;;;;;;;8.62;91.43;97017.16;4960776;28;20047;-66
2022/01/03 08:59:16;;;;;;;3.30;1.73;;;;;;;8.65;90.25;97012.97;4957111;28;20530;-66
2022/01/03 09:01:42;;;;;;;6.47;1.85;;;;;;;8.61;90.60;97016.38;4961211;28;20043;-67
2022/01/03 09:04:07;;;;;;;5.97;2.42;;;;;;;8.57;91.06;97025.59;4955848;28;20046;-63
2022/01/03 09:06:35;;;;;;;7.13;3.42;;;;;;;8.55;91.55;97034.16;4959800;28;20102;-66
2022/01/03 09:09:01;;;;;;;14.32;4.07;;;;;;;8.55;90.95;97031.41;4961070;28;20049;-67
2022/01/03 09:11:27;;;;;;;6.70;2.60;;;;;;;8.57;90.72;97023.69;4952530;28;20407;-66
2022/01/03 09:13:53;;;;;;;7.60;1.88;;;;;;;8.80;89.29;97032.13;4962189;28;20043;-68
2022/01/03 09:16:18;;;;;;;8.57;1.85;;;;;;;8.72;89.33;97035.00;4956640;28;20049;-67
2022/01/03 09:18:44;;;;;;;5.40;1.20;;;;;;;8.66;90.44;97039.09;4961506;28;20054;-67
2022/01/03 09:21:10;;;;;;;4.97;1.27;;;;;;;8.69;90.30;97041.16;4948219;28;20051;-65
2022/01/03 09:23:41;;;;;;;6.43;1.30;;;;;;;8.72;89.08;97043.19;4962266;28;20129;-67
2022/01/03 09:28:52;;;;;;;13.45;3.25;;;;;;;8.70;90.00;97048.22;4963437;28;20500;-66
2022/01/03 09:31:31;;;;;;;8.80;2.90;;;;;;;8.71;89.66;97045.13;4957785;28;20142;-65
2022/01/03 09:33:59;;;;;;;8.65;3.20;;;;;;;8.74;89.92;97049.91;4961692;28;20034;-68
2022/01/03 09:36:26;;;;;;;12.50;3.60;;;;;;;8.77;90.00;97045.69;4957188;28;20043;-64
2022/01/03 09:38:52;;;;;;;8.07;2.97;;;;;;;8.77;89.47;97043.75;4961627;28;20046;-66
2022/01/03 09:41:27;;;;;;;7.30;3.00;;;;;;;8.86;89.27;97037.34;4956061;28;20675;-67
2022/01/03 09:43:54;;;;;;;8.70;2.42;;;;;;;8.91;89.16;97045.28;4960929;28;20046;-67
2022/01/03 09:46:25;;;;;;;8.70;2.20;;;;;;;8.94;87.88;97041.88;4955583;28;20046;-68
2022/01/03 09:48:52;;;;;;;9.00;2.05;;;;;;;9.09;86.20;97040.31;4962141;28;20448;-66
2022/01/03 09:51:20;;;;;;;9.73;1.30;;;;;;;9.23;85.94;97050.84;4950052;28;20046;-67
2022/01/03 09:53:47;;;;;;;5.70;1.95;;;;;;;9.30;85.36;97038.16;4960367;28;20039;-67
2022/01/03 09:56:14;;;;;;;9.15;1.73;;;;;;;9.33;84.79;97033.97;4952073;28;20113;-68
2022/01/03 09:58:40;;;;;;;7.32;1.92;;;;;;;9.38;84.17;97029.03;4959657;28;20067;-67
2022/01/03 10:01:06;;;;;;;3.83;1.20;;;;;;;9.47;83.47;97023.41;4946392;28;20051;-63
2022/01/03 10:03:34;;;;;;;4.10;1.15;;;;;;;9.51;83.79;97018.81;4962455;28;20653;-64
2022/01/03 10:06:00;;;;;;;14.68;3.50;;;;;;;9.54;83.96;97014.56;4963726;28;20049;-66
2022/01/03 10:08:25;;;;;;;13.43;3.05;;;;;;;9.54;83.33;97015.38;4960298;28;20039;-65
2022/01/03 10:10:52;;;;;;;10.07;3.17;;;;;;;9.53;83.48;97027.44;4963067;28;20070;-66
2022/01/03 10:13:18;;;;;;;11.40;3.30;;;;;;;9.55;83.58;97016.16;4964211;28;20035;-67
2022/01/03 10:15:43;;;;;;;22.77;7.05;;;;;;;9.57;83.03;97020.13;4967472;28;20087;-68
2022/01/03 10:18:21;;;;;;;8.60;2.30;;;;;;;9.61;82.62;97028.41;4961440;28;20419;-67
2022/01/03 10:20:47;;;;;;;9.32;2.03;;;;;;;9.65;82.71;97023.84;4959514;28;20105;-66
2022/01/03 10:23:16;;;;;;;8.02;1.75;;;;;;;9.69;82.47;97011.06;4958901;28;20046;-66
2022/01/03 10:25:42;;;;;;;8.20;1.92;;;;;;;9.75;82.35;97008.84;4962162;28;20042;-66
2022/01/03 10:28:08;;;;;;;7.32;1.70;;;;;;;9.80;82.01;97016.78;4960026;28;20456;-64
2022/01/03 10:30:45;;;;;;;9.70;1.70;;;;;;;9.80;82.27;97014.03;4963926;28;20125;-65
2022/01/03 10:33:14;;;;;;;8.05;1.60;;;;;;;9.86;82.18;97012.63;4959772;28;20511;-66
2022/01/03 10:35:44;;;;;;;6.70;1.20;;;;;;;9.94;81.42;97003.44;4963441;28;20054;-65
2022/01/03 10:38:10;;;;;;;10.88;1.63;;;;;;;9.96;81.17;97003.09;4959203;28;20043;-65
2022/01/03 10:40:37;;;;;;;7.20;1.33;;;;;;;10.02;80.69;96998.94;4959286;28;20074;-66
2022/01/03 10:43:18;;;;;;;4.82;1.13;;;;;;;10.02;80.80;96998.13;4963575;28;20054;-65
2022/01/03 10:45:45;;;;;;;10.95;2.20;;;;;;;10.08;80.32;96992.06;4957226;28;20043;-64
2022/01/03 10:48:31;;;;;;;4.78;1.23;;;;;;;10.16;79.87;96982.03;4960882;28;20043;-65
2022/01/03 10:50:59;;;;;;;8.73;1.38;;;;;;;10.12;79.70;96979.22;4966993;28;20051;-65
2022/01/03 10:53:38;;;;;;;4.60;1.80;;;;;;;10.12;80.03;96984.69;4954341;28;20065;-66
2022/01/03 10:56:36;;;;;;;6.13;1.48;;;;;;;10.14;79.41;96963.25;4957802;28;20070;-64
2022/01/03 10:59:30;;;;;;;6.50;1.25;;;;;;;10.09;79.42;96966.25;4967367;28;20060;-64
2022/01/03 11:01:59;;;;;;;6.70;1.50;;;;;;;10.17;79.51;96967.19;4967252;28;20046;-65
2022/01/03 11:13:16;;;;;;;8.15;1.35;;;;;;;10.07;79.30;96945.88;4973610;28;20453;-64
2022/01/03 11:15:51;;;;;;;6.97;1.70;;;;;;;10.04;78.73;96941.88;4966204;28;20417;-64
2022/01/03 11:18:22;;;;;;;4.85;1.27;;;;;;;10.07;78.21;96927.50;4954911;28;20042;-64
2022/01/03 11:21:23;;;;;;;4.93;1.15;;;;;;;10.06;78.56;96934.13;4963728;28;20082;-65
2022/01/03 11:24:09;;;;;;;6.65;1.40;;;;;;;10.05;79.12;96950.91;4960467;28;20042;-68
2022/01/03 11:26:40;;;;;;;8.02;1.40;;;;;;;10.10;78.63;96939.66;4963986;28;20039;-65
2022/01/03 11:29:06;;;;;;;9.07;1.52;;;;;;;10.21;78.43;96926.22;4960329;28;20089;-62
2022/01/03 11:31:38;;;;;;;7.10;1.35;;;;;;;10.20;78.34;96930.91;4965514;28;20043;-65
2022/01/03 11:34:04;;;;;;;6.45;1.10;;;;;;;10.17;77.65;96920.66;4963069;28;20050;-62
2022/01/03 11:36:31;;;;;;;7.00;1.80;;;;;;;10.19;77.52;96923.88;4967765;28;20082;-64
2022/01/03 11:39:04;;;;;;;5.68;1.10;;;;;;;10.20;77.49;96917.22;4964596;28;20798;-65
2022/01/03 11:41:29;;;;;;;9.75;1.33;;;;;;;10.24;77.72;96922.78;4962006;28;20046;-65
2022/01/03 11:43:55;;;;;;;8.27;1.13;;;;;;;10.20;77.20;96917.22;4960573;28;20051;-63
2022/01/03 11:46:22;;;;;;;2.90;0.98;;;;;;;10.14;78.17;96903.03;4958414;28;20042;-63
2022/01/03 11:48:49;;;;;;;9.25;1.45;;;;;;;10.12;78.06;96913.53;4963054;28;20042;-65
2022/01/03 11:51:15;;;;;;;4.93;1.10;;;;;;;10.21;77.72;96912.53;4962934;28;20047;-65
2022/01/03 11:53:46;;;;;;;3.13;1.15;;;;;;;10.16;77.99;96907.38;4959306;28;20042;-64
2022/01/03 11:56:17;;;;;;;4.95;1.08;;;;;;;10.10;78.28;96896.69;4958284;28;20053;-64
2022/01/03 12:03:58;;;;;;;5.18;1.55;;;;;;;10.12;77.65;96883.44;4965984;28;20047;-64
2022/01/03 12:06:32;;;;;;;8.95;1.08;;;;;;;10.25;77.66;96872.34;4959046;28;20118;-65
2022/01/03 12:09:19;;;;;;;2.55;0.93;;;;;;;10.17;77.35;96863.19;4959622;28;20821;-65